LSMD Airport Information

Runway Information
Runway 11 Length 7726 ft width 130 ft
Elevation 1427 ft Threshold 0 ft Heading 108
Runway 29 Length 7726 ft Width 130 ft
Elevation 1470 ft Threshold 0 ft Heading 288
Runway 11R Length 2130 ft width 98 ft
Elevation 1428 ft Threshold 0 ft Heading 108
Runway 29L Length 2130 ft Width 98 ft
Elevation 1437 ft Threshold 0 ft Heading 288
Airport Frequencies
Type ARR Name ARR Frequency 37.68 MHZ
Type ARR Name ARR Frequency 134.925 MHZ
Type DEP Name DEP Frequency 139.5 MHZ
Type INFO Name INFO Frequency 138.05 MHZ
Type RDR Name RADAR Frequency 139.5 MHZ
Type TWR Name TWR Frequency 128.475 MHZ
Airport Navaids
Airport Weather Information & NOTAM
ADDS - METARS form results

(1904 UTC 22 June 2018)
 
METAR text: LSMD 221850Z AUTO 02003KT 330V080 9999NDV FEW063 BKN073 17/04 Q1025 RMK
Conditions at: LSMD (DUBENDORF , CH) observed 1850 UTC 22 June 2018
Temperature: 17.0°C (63°F)
Dewpoint: 4.0°C (39°F) [RH = 42%]
Pressure (altimeter): 30.27 inches Hg (1025.0 mb)
Winds: from the NNE (20 degrees) at 3 MPH (3 knots; 1.6 m/s)
Visibility: missing
Ceiling: 7300 feet AGL
Clouds: few clouds at 6300 feet AGL
broken clouds at 7300 feet AGL
Weather: no significant weather observed at this time